createdAt,value
2023-02-24T00:02:03.421Z,11.95
2023-02-24T00:04:38.398Z,12.15
2023-02-24T00:07:10.744Z,11.80
2023-02-24T00:09:39.127Z,12.48
2023-02-24T00:12:11.351Z,12.27
2023-02-24T00:14:41.719Z,12.00
2023-02-24T00:17:10.173Z,12.15
2023-02-24T00:19:38.292Z,12.80
2023-02-24T00:22:07.571Z,13.23
2023-02-24T00:24:35.735Z,12.05
2023-02-24T00:27:08.243Z,12.65
2023-02-24T00:29:40.759Z,12.45
2023-02-24T00:32:12.343Z,13.80
2023-02-24T00:34:40.615Z,13.82
2023-02-24T00:37:07.980Z,13.13
2023-02-24T00:39:36.539Z,13.13
2023-02-24T00:42:05.949Z,13.48
2023-02-24T00:44:46.942Z,13.93
2023-02-24T00:47:17.118Z,13.98
2023-02-24T00:49:44.721Z,13.40
2023-02-24T00:52:19.798Z,13.40
2023-02-24T00:54:49.089Z,13.90
2023-02-24T00:57:18.392Z,13.10
2023-02-24T00:59:47.429Z,13.52
2023-02-24T01:02:15.401Z,14.00
2023-02-24T01:04:44.946Z,14.43
2023-02-24T01:07:14.141Z,13.07
2023-02-24T01:09:41.920Z,14.77
2023-02-24T01:12:29.805Z,15.32
2023-02-24T01:14:57.016Z,13.38
2023-02-24T01:17:25.299Z,15.80
2023-02-24T01:19:52.810Z,15.38
2023-02-24T01:22:20.934Z,14.27
2023-02-24T01:24:48.831Z,15.27
2023-02-24T01:27:18.724Z,15.77
2023-02-24T01:29:47.229Z,14.10
2023-02-24T01:32:22.284Z,16.27
2023-02-24T01:34:53.023Z,15.63
2023-02-24T01:37:20.769Z,17.08
2023-02-24T01:39:49.430Z,16.60
2023-02-24T01:42:19.890Z,17.67
2023-02-24T01:44:47.504Z,18.13
2023-02-24T01:47:18.295Z,17.60
2023-02-24T01:49:48.220Z,18.77
2023-02-24T01:52:23.395Z,16.20
2023-02-24T01:55:13.304Z,17.83
2023-02-24T01:57:42.512Z,19.38
2023-02-24T02:00:12.162Z,21.15
2023-02-24T02:02:46.337Z,17.98
2023-02-24T02:05:14.805Z,19.97
2023-02-24T02:07:44.333Z,21.05
2023-02-24T02:10:13.298Z,19.63
2023-02-24T02:12:44.346Z,21.67
2023-02-24T02:15:15.245Z,21.15
2023-02-24T02:18:20.262Z,22.63
2023-02-24T02:21:15.167Z,21.50
2023-02-24T02:23:42.093Z,21.15
2023-02-24T02:26:49.009Z,22.58
2023-02-24T02:29:48.260Z,23.33
2023-02-24T02:32:55.018Z,22.83
2023-02-24T02:35:48.789Z,21.95
2023-02-24T02:38:40.427Z,23.42
2023-02-24T02:41:29.167Z,22.98
2023-02-24T02:44:19.373Z,22.85
2023-02-24T02:46:56.502Z,24.20
2023-02-24T02:49:40.485Z,24.75
2023-02-24T02:52:17.689Z,24.35
2023-02-24T02:55:08.208Z,24.35
2023-02-24T02:57:38.006Z,25.60
2023-02-24T03:00:13.262Z,24.05
2023-02-24T03:02:49.454Z,24.58
2023-02-24T03:05:21.273Z,25.55
2023-02-24T03:07:54.727Z,26.15
2023-02-24T03:10:29.806Z,24.88
2023-02-24T03:13:03.379Z,25.80
2023-02-24T03:15:32.871Z,26.30
2023-02-24T03:18:10.084Z,27.73
2023-02-24T03:20:43.741Z,25.20
2023-02-24T03:23:18.334Z,27.38
2023-02-24T03:25:53.976Z,27.38
2023-02-24T03:28:35.443Z,25.58
2023-02-24T03:31:18.103Z,26.45
2023-02-24T03:34:00.548Z,28.50
2023-02-24T03:36:28.744Z,26.23
2023-02-24T03:38:58.284Z,26.23
2023-02-24T03:41:35.913Z,26.33
2023-02-24T03:44:03.704Z,25.83
2023-02-24T03:46:32.687Z,27.15
2023-02-24T03:49:16.961Z,25.92
2023-02-24T03:52:08.701Z,25.52
2023-02-24T03:54:59.229Z,24.85
2023-02-24T03:57:55.166Z,24.30
2023-02-24T04:01:00.603Z,20.20
2023-02-24T04:03:45.165Z,17.88
2023-02-24T04:06:41.821Z,19.52
2023-02-24T04:09:26.268Z,15.43
2023-02-24T04:12:09.273Z,14.90
2023-02-24T04:14:57.190Z,10.32
2023-02-24T04:17:50.385Z,11.32
2023-02-24T04:20:22.748Z,8.70
2023-02-24T04:23:02.686Z,7.15
2023-02-24T04:25:31.786Z,7.20
2023-02-24T04:28:02.982Z,6.85
2023-02-24T04:30:36.050Z,7.72
2023-02-24T04:33:03.719Z,7.25
2023-02-24T04:35:30.962Z,8.73
2023-02-24T04:37:58.165Z,8.93
2023-02-24T04:40:26.025Z,8.57
2023-02-24T04:42:54.056Z,10.18
2023-02-24T04:45:24.376Z,9.15
2023-02-24T04:47:56.086Z,9.23
2023-02-24T04:50:25.570Z,9.43
2023-02-24T04:53:09.311Z,10.43
2023-02-24T04:55:42.322Z,10.23
2023-02-24T04:58:11.953Z,10.38
2023-02-24T05:00:41.711Z,10.93
2023-02-24T05:03:11.744Z,11.35
2023-02-24T05:05:39.411Z,10.13
2023-02-24T05:08:08.842Z,9.82
2023-02-24T05:10:41.994Z,10.57
2023-02-24T05:13:13.765Z,10.32
2023-02-24T05:15:42.895Z,9.37
2023-02-24T05:18:14.677Z,10.57
2023-02-24T05:21:04.237Z,10.88
2023-02-24T05:23:34.092Z,11.18
2023-02-24T05:26:03.296Z,11.25
2023-02-24T05:28:33.100Z,11.65
2023-02-24T05:31:14.878Z,9.98
2023-02-24T05:33:44.087Z,11.10
2023-02-24T05:36:20.186Z,9.52
2023-02-24T05:38:49.408Z,9.30
2023-02-24T05:41:18.532Z,9.10
2023-02-24T05:43:53.125Z,9.25
2023-02-24T05:46:28.199Z,8.48
2023-02-24T05:48:56.968Z,10.13
2023-02-24T05:51:24.876Z,8.52
2023-02-24T05:53:55.610Z,8.70
2023-02-24T05:56:23.387Z,9.25
2023-02-24T05:59:01.695Z,10.18
2023-02-24T06:01:30.847Z,10.18
2023-02-24T06:04:05.963Z,8.50
2023-02-24T06:06:41.245Z,7.75
2023-02-24T06:09:12.545Z,8.15
2023-02-24T06:11:45.119Z,8.32
2023-02-24T06:16:41.668Z,7.72
2023-02-24T06:19:10.873Z,8.43
2023-02-24T06:21:41.288Z,8.80
2023-02-24T06:24:18.322Z,7.15
2023-02-24T06:26:46.435Z,7.03
2023-02-24T06:29:15.609Z,7.00
2023-02-24T06:31:44.077Z,6.95
2023-02-24T06:34:13.074Z,6.07
2023-02-24T06:36:40.281Z,6.18
2023-02-24T06:39:08.316Z,6.15
2023-02-24T06:41:37.826Z,6.38
2023-02-24T06:44:05.138Z,6.15
2023-02-24T06:46:32.194Z,5.93
2023-02-24T06:48:59.261Z,5.97
2023-02-24T06:51:30.059Z,6.85
2023-02-24T06:53:59.309Z,6.32
2023-02-24T06:56:27.229Z,6.82
2023-02-24T06:58:56.757Z,6.85
2023-02-24T07:01:26.669Z,8.23
2023-02-24T07:04:17.443Z,6.57
2023-02-24T07:06:52.222Z,6.18
2023-02-24T07:09:22.058Z,5.90
2023-02-24T07:11:52.286Z,6.63
2023-02-24T07:14:22.051Z,6.90
2023-02-24T07:16:53.995Z,7.68
2023-02-24T07:19:24.592Z,6.30
2023-02-24T07:21:59.852Z,7.57
2023-02-24T07:24:40.738Z,8.02
2023-02-24T07:27:12.935Z,7.70
2023-02-24T07:29:39.990Z,6.63
2023-02-24T07:32:09.284Z,7.50
2023-02-24T07:34:39.905Z,7.53
2023-02-24T07:37:08.665Z,8.25
2023-02-24T07:39:37.508Z,6.38
2023-02-24T07:42:05.708Z,6.40
2023-02-24T07:44:44.636Z,4.78
2023-02-24T07:47:11.777Z,4.20
2023-02-24T07:49:39.464Z,5.43
2023-02-24T07:52:08.084Z,5.20
2023-02-24T07:54:35.642Z,4.95
2023-02-24T07:57:03.058Z,4.05
2023-02-24T07:59:34.477Z,4.15
2023-02-24T08:02:04.571Z,4.30
2023-02-24T08:04:32.876Z,5.40
2023-02-24T08:07:03.234Z,3.58
2023-02-24T08:09:45.393Z,3.88
2023-02-24T08:12:21.503Z,5.50
2023-02-24T08:14:51.871Z,3.72
2023-02-24T08:17:26.120Z,3.90
2023-02-24T08:20:21.112Z,4.28
2023-02-24T08:22:52.339Z,2.88
2023-02-24T08:25:35.145Z,2.95
2023-02-24T08:30:48.544Z,2.65
2023-02-24T08:33:22.361Z,2.72
2023-02-24T08:36:00.844Z,3.67
2023-02-24T08:38:40.182Z,3.45
2023-02-24T08:41:21.044Z,3.25
2023-02-24T08:43:48.972Z,4.40
2023-02-24T08:46:26.096Z,2.90
2023-02-24T08:49:00.548Z,2.58
2023-02-24T08:51:29.378Z,3.22
2023-02-24T08:54:02.796Z,3.28
2023-02-24T08:56:34.612Z,2.95
2023-02-24T08:59:05.948Z,3.70
2023-02-24T09:01:39.051Z,3.65
2023-02-24T09:04:08.326Z,4.32
2023-02-24T09:06:35.400Z,4.60
2023-02-24T09:09:19.024Z,4.72
2023-02-24T09:11:49.575Z,4.82
2023-02-24T09:14:27.298Z,4.03
2023-02-24T09:17:03.585Z,2.80
2023-02-24T09:19:47.462Z,3.90
2023-02-24T09:22:37.796Z,3.15
2023-02-24T09:25:17.842Z,4.25
2023-02-24T09:27:52.347Z,4.40
2023-02-24T09:30:37.949Z,4.63
2023-02-24T09:33:06.251Z,4.90
2023-02-24T09:35:36.776Z,4.57
2023-02-24T09:38:07.198Z,4.07
2023-02-24T09:40:40.968Z,4.60
2023-02-24T09:43:17.577Z,4.03
2023-02-24T09:45:53.636Z,3.28
2023-02-24T09:48:30.185Z,4.97
2023-02-24T09:51:06.421Z,5.28
2023-02-24T09:53:41.222Z,3.47
2023-02-24T09:56:36.954Z,4.15
2023-02-24T09:59:25.973Z,3.92
2023-02-24T10:02:35.154Z,4.55
2023-02-24T10:05:38.264Z,3.97
2023-02-24T10:11:00.733Z,3.50
2023-02-24T10:13:32.591Z,4.45
2023-02-24T10:16:06.974Z,3.70
2023-02-24T10:19:11.660Z,5.47
2023-02-24T10:22:00.602Z,4.97
2023-02-24T10:24:47.276Z,4.60
2023-02-24T10:27:26.355Z,4.30
2023-02-24T10:30:10.934Z,4.15
2023-02-24T10:32:50.005Z,5.07
2023-02-24T10:35:25.743Z,5.18
2023-02-24T10:37:53.873Z,3.78
2023-02-24T10:40:27.403Z,4.55
2023-02-24T10:43:10.743Z,4.95
2023-02-24T10:45:45.088Z,5.72
2023-02-24T10:48:41.510Z,5.90
2023-02-24T10:51:22.118Z,5.57
2023-02-24T10:54:13.668Z,5.18
2023-02-24T10:56:55.070Z,5.53
2023-02-24T10:59:42.285Z,6.30
2023-02-24T11:02:34.198Z,4.47
2023-02-24T11:05:37.486Z,5.45
2023-02-24T11:10:53.372Z,5.00
2023-02-24T11:13:39.393Z,6.10
2023-02-24T11:16:27.718Z,4.70
2023-02-24T11:18:55.960Z,5.70
2023-02-24T11:21:25.718Z,5.25
2023-02-24T11:24:02.514Z,5.22
2023-02-24T11:26:37.865Z,4.68
2023-02-24T11:29:24.157Z,4.28
2023-02-24T11:32:00.175Z,4.45
2023-02-24T11:34:49.230Z,4.72
2023-02-24T11:37:37.811Z,3.55
2023-02-24T11:40:15.176Z,5.00
2023-02-24T11:42:53.227Z,3.67
2023-02-24T11:45:26.217Z,3.97
2023-02-24T11:47:59.455Z,3.30
2023-02-24T11:50:33.196Z,4.15
2023-02-24T11:53:05.930Z,2.88
2023-02-24T11:55:42.355Z,3.47
2023-02-24T11:58:27.097Z,3.30
2023-02-24T12:01:02.881Z,3.45
2023-02-24T12:03:40.701Z,3.40
2023-02-24T12:06:16.709Z,2.63
2023-02-24T12:08:48.100Z,3.15
2023-02-24T12:11:26.668Z,3.33
2023-02-24T12:14:14.976Z,2.95
2023-02-24T12:16:47.822Z,2.83
2023-02-24T12:19:21.119Z,2.63
2023-02-24T12:21:53.291Z,3.28
2023-02-24T12:24:21.310Z,2.90
2023-02-24T12:27:34.343Z,3.72
2023-02-24T12:30:23.252Z,2.85
2023-02-24T12:33:19.242Z,5.35
2023-02-24T12:36:08.389Z,2.85
2023-02-24T12:39:00.826Z,3.47
2023-02-24T12:41:35.747Z,3.70
2023-02-24T12:44:07.056Z,3.10
2023-02-24T12:46:37.373Z,3.92
2023-02-24T12:49:13.533Z,3.15
2023-02-24T12:52:05.195Z,3.00
2023-02-24T12:54:48.084Z,2.95
2023-02-24T12:57:30.197Z,3.08
2023-02-24T13:00:06.448Z,2.95
2023-02-24T13:02:53.564Z,3.45
2023-02-24T13:05:43.207Z,4.18
2023-02-24T13:08:46.317Z,3.70
2023-02-24T13:14:01.856Z,4.22
2023-02-24T13:16:32.357Z,3.67
2023-02-24T13:19:25.573Z,4.38
2023-02-24T13:22:06.760Z,3.85
2023-02-24T13:24:34.843Z,4.68
2023-02-24T13:27:29.705Z,3.50
2023-02-24T13:30:00.781Z,3.92
2023-02-24T13:32:37.615Z,3.70
2023-02-24T13:35:13.769Z,3.50
2023-02-24T13:37:43.254Z,4.38
2023-02-24T13:40:19.222Z,4.45
2023-02-24T13:43:01.058Z,4.25
2023-02-24T13:45:30.390Z,4.83
2023-02-24T13:48:01.834Z,4.10
2023-02-24T13:53:34.340Z,5.72
2023-02-24T13:56:12.822Z,4.82
2023-02-24T13:59:02.305Z,4.63
2023-02-24T14:01:32.528Z,5.50
2023-02-24T14:04:17.086Z,5.13
2023-02-24T14:06:52.700Z,4.45
2023-02-24T14:09:27.077Z,4.28
2023-02-24T14:11:59.573Z,4.55
2023-02-24T14:16:53.838Z,3.65
2023-02-24T14:19:20.828Z,4.90
2023-02-24T14:21:51.735Z,4.60
2023-02-24T14:24:19.085Z,6.05
2023-02-24T14:26:50.351Z,4.45
2023-02-24T14:29:25.545Z,4.53
2023-02-24T14:31:56.668Z,3.97
2023-02-24T14:34:26.543Z,4.97
2023-02-24T14:36:56.107Z,5.20
2023-02-24T14:39:31.210Z,4.13
2023-02-24T14:42:25.115Z,4.95
2023-02-24T14:44:55.357Z,4.47
2023-02-24T14:47:26.015Z,4.63
2023-02-24T14:49:54.808Z,4.32
2023-02-24T14:52:32.753Z,4.30
2023-02-24T14:55:07.252Z,4.10
2023-02-24T14:57:41.696Z,4.13
2023-02-24T15:00:21.985Z,4.43
2023-02-24T15:03:03.598Z,3.95
2023-02-24T15:05:31.235Z,4.50
2023-02-24T15:08:00.859Z,4.13
2023-02-24T15:10:30.730Z,4.10
2023-02-24T15:13:15.482Z,3.92
2023-02-24T15:15:42.740Z,4.32
2023-02-24T15:18:23.843Z,4.47
2023-02-24T15:21:01.354Z,3.75
2023-02-24T15:23:34.203Z,4.57
2023-02-24T15:26:02.176Z,3.92
2023-02-24T15:28:35.182Z,4.53
2023-02-24T15:31:16.877Z,3.97
2023-02-24T15:33:57.867Z,3.35
2023-02-24T15:36:34.756Z,5.20
2023-02-24T15:39:10.209Z,4.80
2023-02-24T15:41:42.788Z,4.47
2023-02-24T15:46:58.104Z,4.03
2023-02-24T15:49:25.610Z,5.30
2023-02-24T15:51:55.788Z,5.20
2023-02-24T15:54:43.044Z,4.82
2023-02-24T15:57:14.615Z,4.88
2023-02-24T15:59:41.885Z,4.70
2023-02-24T16:02:14.089Z,5.85
2023-02-24T16:04:41.341Z,5.95
2023-02-24T16:07:15.308Z,4.28
2023-02-24T16:09:43.166Z,4.03
2023-02-24T16:12:14.987Z,4.68
2023-02-24T16:14:43.664Z,4.28
2023-02-24T16:17:41.002Z,5.00
2023-02-24T16:20:14.213Z,3.90
2023-02-24T16:22:41.263Z,4.22
2023-02-24T16:25:09.318Z,4.00
2023-02-24T16:27:36.496Z,4.35
2023-02-24T16:30:04.033Z,4.07
2023-02-24T16:32:31.252Z,4.07
2023-02-24T16:34:58.414Z,4.97
2023-02-24T16:37:29.476Z,3.60
2023-02-24T16:39:59.417Z,4.55
2023-02-24T16:42:26.491Z,4.50
2023-02-24T16:44:53.513Z,4.47
2023-02-24T16:47:24.092Z,4.80
2023-02-24T16:49:55.237Z,5.10
2023-02-24T16:52:23.343Z,4.32
2023-02-24T16:54:50.798Z,5.22
2023-02-24T16:57:17.837Z,5.30
2023-02-24T16:59:44.836Z,5.38
2023-02-24T17:02:24.410Z,4.60
2023-02-24T17:04:51.492Z,5.88
2023-02-24T17:07:20.821Z,5.65
2023-02-24T17:09:47.937Z,6.10
2023-02-24T17:12:17.163Z,5.95
2023-02-24T17:14:44.253Z,6.75
2023-02-24T17:17:11.692Z,6.57
2023-02-24T17:19:39.298Z,8.02
2023-02-24T17:22:07.334Z,9.07
2023-02-24T17:24:34.311Z,7.60
2023-02-24T17:27:01.286Z,9.43
2023-02-24T17:29:28.292Z,8.55
2023-02-24T17:31:55.492Z,8.20
2023-02-24T17:34:24.117Z,9.23
2023-02-24T17:36:51.178Z,9.77
2023-02-24T17:39:18.165Z,9.90
2023-02-24T17:41:45.521Z,10.35
2023-02-24T17:44:12.571Z,11.10
2023-02-24T17:46:39.743Z,10.98
2023-02-24T17:49:07.058Z,10.80
2023-02-24T17:51:34.171Z,10.82
2023-02-24T17:54:01.141Z,10.82
2023-02-24T17:56:28.131Z,11.68
2023-02-24T17:58:58.635Z,13.80
2023-02-24T18:01:26.073Z,13.10
2023-02-24T18:03:55.587Z,12.95
2023-02-24T18:06:24.017Z,12.23
2023-02-24T18:08:51.299Z,11.18
2023-02-24T18:11:20.108Z,11.95
2023-02-24T18:13:50.851Z,10.93
2023-02-24T18:16:18.252Z,9.82
2023-02-24T18:18:45.323Z,8.85
2023-02-24T18:21:12.414Z,7.25
2023-02-24T18:23:40.212Z,7.63
2023-02-24T18:26:09.374Z,7.78
2023-02-24T18:28:37.070Z,7.25
2023-02-24T18:31:19.854Z,7.45
2023-02-24T18:33:47.078Z,7.35
2023-02-24T18:36:15.794Z,7.07
2023-02-24T18:38:43.438Z,6.88
2023-02-24T18:41:17.016Z,8.13
2023-02-24T18:43:47.873Z,8.75
2023-02-24T18:46:16.630Z,8.27
2023-02-24T18:48:44.601Z,7.90
2023-02-24T18:51:13.786Z,8.35
2023-02-24T18:53:40.892Z,8.30
2023-02-24T18:56:10.405Z,8.43
2023-02-24T18:58:38.527Z,7.82
2023-02-24T19:01:20.854Z,8.77
2023-02-24T19:03:49.882Z,8.93
2023-02-24T19:06:21.661Z,7.72
2023-02-24T19:08:54.825Z,9.07
2023-02-24T19:11:21.900Z,8.65
2023-02-24T19:13:48.982Z,9.63
2023-02-24T19:16:18.157Z,9.60
2023-02-24T19:18:47.872Z,9.93
2023-02-24T19:21:14.855Z,10.35
2023-02-24T19:23:41.910Z,9.88
2023-02-24T19:26:23.622Z,10.50
2023-02-24T19:28:51.156Z,9.13
2023-02-24T19:31:21.784Z,10.15
2023-02-24T19:33:57.411Z,9.68
2023-02-24T19:36:24.989Z,9.85
2023-02-24T19:38:52.388Z,9.50
2023-02-24T19:41:19.781Z,10.45
2023-02-24T19:43:47.048Z,11.50
2023-02-24T19:46:15.559Z,10.32
2023-02-24T19:48:42.819Z,8.85
2023-02-24T19:51:15.490Z,9.70
2023-02-24T19:53:42.799Z,8.43
2023-02-24T19:56:10.001Z,9.30
2023-02-24T19:58:37.575Z,9.38
2023-02-24T20:01:13.295Z,10.43
2023-02-24T20:03:42.356Z,8.57
2023-02-24T20:06:22.016Z,7.88
2023-02-24T20:08:49.318Z,6.93
2023-02-24T20:11:18.188Z,5.70
2023-02-24T20:13:45.815Z,5.38
2023-02-24T20:16:15.772Z,5.78
2023-02-24T20:18:44.544Z,4.82
2023-02-24T20:21:13.470Z,4.70
2023-02-24T20:23:41.109Z,3.90
2023-02-24T20:26:10.748Z,2.70
2023-02-24T20:28:37.763Z,3.17
2023-02-24T20:31:10.599Z,3.35
2023-02-24T20:33:41.741Z,2.75
2023-02-24T20:36:11.398Z,3.50
2023-02-24T20:38:39.126Z,2.85
2023-02-24T20:41:07.210Z,2.38
2023-02-24T20:43:34.356Z,2.35
2023-02-24T20:46:13.435Z,2.50
2023-02-24T20:48:40.777Z,2.60
2023-02-24T20:51:08.740Z,1.80
2023-02-24T20:53:54.264Z,2.33
2023-02-24T20:56:24.152Z,1.80
2023-02-24T20:58:59.722Z,2.15
2023-02-24T21:01:27.760Z,2.60
2023-02-24T21:03:54.844Z,1.90
2023-02-24T21:06:22.685Z,2.15
2023-02-24T21:08:50.948Z,2.78
2023-02-24T21:11:18.034Z,2.40
2023-02-24T21:13:47.035Z,2.20
2023-02-24T21:16:15.858Z,2.80
2023-02-24T21:18:44.918Z,3.25
2023-02-24T21:21:13.057Z,2.15
2023-02-24T21:23:40.082Z,2.45
2023-02-24T21:26:10.781Z,2.42
2023-02-24T21:28:56.965Z,4.32
2023-02-24T21:31:27.600Z,2.10
2023-02-24T21:33:55.610Z,2.35
2023-02-24T21:36:25.696Z,2.50
2023-02-24T21:38:53.463Z,2.30
2023-02-24T21:41:21.344Z,2.35
2023-02-24T21:43:52.053Z,2.75
2023-02-24T21:46:19.076Z,2.22
2023-02-24T21:49:02.276Z,3.47
2023-02-24T21:51:31.769Z,3.05
2023-02-24T21:53:59.012Z,4.32
2023-02-24T21:56:31.954Z,3.17
2023-02-24T21:59:01.715Z,3.33
2023-02-24T22:01:34.719Z,2.90
2023-02-24T22:04:05.376Z,3.15
2023-02-24T22:06:34.886Z,3.28
2023-02-24T22:09:03.994Z,3.10
2023-02-24T22:11:35.042Z,3.38
2023-02-24T22:14:02.824Z,4.00
2023-02-24T22:16:30.017Z,3.50
2023-02-24T22:18:57.067Z,3.15
2023-02-24T22:21:27.147Z,3.35
2023-02-24T22:23:56.972Z,3.13
2023-02-24T22:26:25.314Z,3.05
2023-02-24T22:28:54.016Z,4.05
2023-02-24T22:31:24.179Z,3.17
2023-02-24T22:33:51.779Z,3.60
2023-02-24T22:36:21.308Z,4.18
2023-02-24T22:38:48.661Z,3.65
2023-02-24T22:41:18.853Z,3.22
2023-02-24T22:43:46.082Z,3.30
2023-02-24T22:46:20.884Z,3.47
2023-02-24T22:48:50.175Z,4.55
2023-02-24T22:51:18.610Z,3.55
2023-02-24T22:53:48.810Z,3.00
2023-02-24T22:56:18.693Z,5.15
2023-02-24T22:58:46.380Z,3.33
2023-02-24T23:01:23.771Z,3.92
2023-02-24T23:03:51.253Z,3.00
2023-02-24T23:06:21.888Z,3.03
2023-02-24T23:08:50.666Z,2.65
2023-02-24T23:11:41.245Z,2.75
2023-02-24T23:14:13.254Z,2.08
2023-02-24T23:16:42.318Z,3.80
2023-02-24T23:19:15.969Z,3.13
2023-02-24T23:21:52.681Z,3.40
2023-02-24T23:24:21.814Z,3.00
2023-02-24T23:26:54.577Z,3.45
2023-02-24T23:29:22.739Z,2.70
2023-02-24T23:31:50.800Z,2.60
2023-02-24T23:34:18.120Z,4.05
2023-02-24T23:36:46.925Z,3.20
2023-02-24T23:39:16.193Z,5.47
2023-02-24T23:41:43.360Z,2.95
2023-02-24T23:44:10.450Z,2.70
2023-02-24T23:46:37.643Z,2.88
2023-02-24T23:49:05.192Z,4.40
2023-02-24T23:51:47.077Z,3.90
2023-02-24T23:56:42.235Z,3.58
2023-02-24T23:59:09.229Z,4.53
